Time;durP1;ratioP1;P1;durP2;ratioP2;P2;SDS_P1;SDS_P2;PMS_P1;PMS_P2;Temp;Humidity;BMP_temperature;BMP_pressure;BME280_temperature;BME280_humidity;BME280_pressure;Samples;Min_cycle;Max_cycle;Signal;HPM_P1;HPM_P2
2023/03/26 00:00:48;;;;;;;0.73;0.40;;;17.90;47.30;;;;;;4847181;29;20165;-85
2023/03/26 00:03:15;;;;;;;0.50;0.50;;;17.90;47.40;;;;;;4847148;29;20173;-84
2023/03/26 00:05:42;;;;;;;0.60;0.55;;;17.90;47.40;;;;;;4847022;29;20173;-85
2023/03/26 00:08:08;;;;;;;0.30;0.30;;;17.90;47.20;;;;;;4846795;29;20204;-86
2023/03/26 00:10:35;;;;;;;0.47;0.47;;;17.90;47.30;;;;;;4846940;29;20256;-85
2023/03/26 00:13:02;;;;;;;0.40;0.40;;;17.90;47.40;;;;;;4847117;29;20169;-84
2023/03/26 00:15:28;;;;;;;0.32;0.32;;;17.90;47.40;;;;;;4846465;29;20169;-85
2023/03/26 00:17:55;;;;;;;0.30;0.30;;;17.90;47.50;;;;;;4846920;29;20517;-86
2023/03/26 00:20:26;;;;;;;0.30;0.30;;;17.90;47.50;;;;;;4847200;29;20224;-86
2023/03/26 00:22:54;;;;;;;0.52;0.52;;;17.90;47.50;;;;;;4816239;29;20595;-85
2023/03/26 00:25:20;;;;;;;0.30;0.30;;;17.80;47.40;;;;;;4846589;29;20164;-86
2023/03/26 00:27:50;;;;;;;0.45;0.45;;;17.90;47.50;;;;;;4846605;29;20204;-85
2023/03/26 00:30:16;;;;;;;0.35;0.35;;;17.90;47.50;;;;;;4815765;29;20203;-86
2023/03/26 00:32:42;;;;;;;0.30;0.30;;;17.90;47.60;;;;;;4845917;29;20613;-85
2023/03/26 00:35:09;;;;;;;0.52;0.52;;;17.90;47.60;;;;;;4847017;29;20169;-85
2023/03/26 00:37:35;;;;;;;0.45;0.45;;;17.90;47.60;;;;;;4846405;29;20232;-86
2023/03/26 00:40:05;;;;;;;0.30;0.30;;;17.90;47.60;;;;;;4831037;29;20183;-85
2023/03/26 00:42:32;;;;;;;0.40;0.40;;;17.90;47.40;;;;;;4846738;29;20173;-85
2023/03/26 00:45:03;;;;;;;0.30;0.30;;;17.90;47.50;;;;;;4846505;29;20153;-85
2023/03/26 00:47:29;;;;;;;0.63;0.47;;;17.90;47.60;;;;;;4815592;29;20577;-85
2023/03/26 00:49:56;;;;;;;0.50;0.40;;;17.90;47.60;;;;;;4846081;29;20180;-85
2023/03/26 00:52:22;;;;;;;0.30;0.30;;;17.90;47.60;;;;;;4863137;29;20193;-85
2023/03/26 00:54:50;;;;;;;0.30;0.30;;;17.90;47.60;;;;;;4862625;29;20157;-85
2023/03/26 00:57:20;;;;;;;0.30;0.30;;;17.90;47.70;;;;;;4831023;29;20185;-85
2023/03/26 00:59:47;;;;;;;0.40;0.40;;;17.90;47.60;;;;;;4815070;29;20200;-85
2023/03/26 01:02:16;;;;;;;0.50;0.50;;;17.80;47.70;;;;;;4845950;29;20177;-85
2023/03/26 01:04:54;;;;;;;0.63;0.47;;;17.80;47.60;;;;;;4861199;29;20552;-85
2023/03/26 01:07:27;;;;;;;0.50;0.50;;;17.80;47.70;;;;;;4816694;29;20215;-85
2023/03/26 01:09:54;;;;;;;0.50;0.50;;;17.80;47.80;;;;;;4846252;29;20173;-86
2023/03/26 01:12:22;;;;;;;0.47;0.30;;;17.80;47.80;;;;;;4845923;29;20649;-85
2023/03/26 01:14:49;;;;;;;0.38;0.38;;;17.80;47.70;;;;;;4845727;29;20580;-85
2023/03/26 01:17:19;;;;;;;0.40;0.40;;;17.80;47.60;;;;;;4845425;29;20624;-85
2023/03/26 01:19:56;;;;;;;0.35;0.30;;;17.80;48.40;;;;;;4814849;29;20193;-85
2023/03/26 01:22:24;;;;;;;0.43;0.40;;;17.70;47.70;;;;;;4845983;29;20156;-85
2023/03/26 01:24:52;;;;;;;0.40;0.40;;;17.80;47.70;;;;;;4845715;29;20183;-85
2023/03/26 01:27:42;;;;;;;0.40;0.40;;;17.80;47.80;;;;;;4845786;29;20656;-85
2023/03/26 01:30:36;;;;;;;0.30;0.30;;;17.80;47.80;;;;;;4845831;29;20175;-84
2023/03/26 01:33:06;;;;;;;0.30;0.30;;;17.80;47.80;;;;;;4862134;29;20272;-84
2023/03/26 01:35:44;;;;;;;0.80;0.40;;;17.80;47.80;;;;;;4845510;29;20171;-84
2023/03/26 01:38:46;;;;;;;0.40;0.40;;;17.80;47.80;;;;;;4830314;29;20236;-84
2023/03/26 01:41:26;;;;;;;0.40;0.40;;;17.80;47.90;;;;;;4832043;29;20165;-85
2023/03/26 01:44:05;;;;;;;0.50;0.50;;;17.80;47.90;;;;;;4782612;29;20200;-85
2023/03/26 01:46:37;;;;;;;0.40;0.40;;;17.80;47.80;;;;;;4796677;29;20220;-85
2023/03/26 01:49:11;;;;;;;0.30;0.30;;;17.80;47.90;;;;;;4781535;29;20185;-85
2023/03/26 01:51:42;;;;;;;0.47;0.47;;;17.80;47.90;;;;;;4783219;29;20195;-85
2023/03/26 01:54:15;;;;;;;0.43;0.43;;;17.80;47.80;;;;;;4796379;29;20188;-85
2023/03/26 01:57:08;;;;;;;0.40;0.40;;;17.80;47.80;;;;;;4781665;29;20677;-85
2023/03/26 01:59:53;;;;;;;0.50;0.40;;;17.70;47.80;;;;;;4801687;29;20248;-84
2023/03/26 02:02:26;;;;;;;0.65;0.50;;;17.80;47.90;;;;;;4798065;29;20671;-85
2023/03/26 02:05:11;;;;;;;0.60;0.60;;;17.80;47.80;;;;;;4797077;29;20196;-84
2023/03/26 02:08:05;;;;;;;0.40;0.40;;;17.80;47.80;;;;;;4827318;29;20205;-86
2023/03/26 02:10:39;;;;;;;0.40;0.40;;;17.80;47.90;;;;;;4815174;29;20197;-85
2023/03/26 02:13:08;;;;;;;0.45;0.40;;;17.70;47.90;;;;;;4796493;29;20546;-86
2023/03/26 02:15:37;;;;;;;0.40;0.40;;;17.80;47.80;;;;;;4795981;29;20273;-86
2023/03/26 02:18:09;;;;;;;0.47;0.47;;;17.70;47.80;;;;;;4811317;29;20198;-85
2023/03/26 02:20:38;;;;;;;0.40;0.40;;;17.80;47.80;;;;;;4797735;29;20189;-86
2023/03/26 02:23:07;;;;;;;0.50;0.50;;;17.80;47.90;;;;;;4810918;29;20190;-84
2023/03/26 02:25:38;;;;;;;0.50;0.50;;;17.80;48.00;;;;;;4796034;29;20196;-85
2023/03/26 02:28:07;;;;;;;0.60;0.57;;;17.80;48.00;;;;;;4796877;29;20225;-85
2023/03/26 02:30:36;;;;;;;0.40;0.40;;;17.80;48.00;;;;;;4780829;29;20200;-85
2023/03/26 02:33:05;;;;;;;0.40;0.40;;;17.80;47.90;;;;;;4781862;29;20186;-85
2023/03/26 02:35:33;;;;;;;0.30;0.30;;;17.80;47.90;;;;;;4796557;29;20193;-85
2023/03/26 02:38:01;;;;;;;0.40;0.40;;;17.80;48.00;;;;;;4810941;29;20697;-84
2023/03/26 02:40:29;;;;;;;0.32;0.32;;;17.80;48.00;;;;;;4781082;29;20190;-85
2023/03/26 02:42:57;;;;;;;0.40;0.40;;;17.80;48.10;;;;;;4795731;29;20649;-86
2023/03/26 02:45:25;;;;;;;0.50;0.50;;;17.80;48.00;;;;;;4796138;29;20193;-84
2023/03/26 02:47:53;;;;;;;0.40;0.40;;;17.80;48.00;;;;;;4795940;29;20245;-84
2023/03/26 02:50:20;;;;;;;0.73;0.40;;;17.80;48.00;;;;;;4780760;29;20668;-85
2023/03/26 02:52:48;;;;;;;0.40;0.40;;;17.80;48.00;;;;;;4795766;29;20206;-85
2023/03/26 02:55:16;;;;;;;0.47;0.40;;;17.80;48.00;;;;;;4796485;29;20253;-85
2023/03/26 02:57:43;;;;;;;0.40;0.40;;;17.70;48.00;;;;;;4798898;29;20189;-84
2023/03/26 03:00:15;;;;;;;0.30;0.30;;;17.80;48.00;;;;;;4798875;29;20189;-85
2023/03/26 03:02:43;;;;;;;0.40;0.40;;;17.70;48.10;;;;;;4801132;29;20212;-85
2023/03/26 03:05:10;;;;;;;0.47;0.47;;;17.80;48.00;;;;;;4798868;29;20306;-85
2023/03/26 03:07:37;;;;;;;0.40;0.40;;;17.70;48.00;;;;;;4798817;29;20221;-84
2023/03/26 03:10:07;;;;;;;0.40;0.40;;;17.70;48.00;;;;;;4798838;29;20273;-85
2023/03/26 03:12:37;;;;;;;0.30;0.30;;;17.70;48.10;;;;;;4799265;29;20581;-85
2023/03/26 03:15:04;;;;;;;0.40;0.40;;;17.70;48.10;;;;;;4783948;29;20546;-85
2023/03/26 03:17:31;;;;;;;0.60;0.50;;;17.70;48.00;;;;;;4783346;29;20713;-85
2023/03/26 03:19:58;;;;;;;0.40;0.40;;;17.70;48.10;;;;;;4798747;29;20203;-85
2023/03/26 03:22:25;;;;;;;0.47;0.47;;;17.80;48.20;;;;;;4798740;29;20239;-85
2023/03/26 03:24:52;;;;;;;0.40;0.40;;;17.70;48.10;;;;;;4783531;29;20192;-84
2023/03/26 03:27:20;;;;;;;0.30;0.30;;;17.80;48.10;;;;;;4783581;29;20701;-85
2023/03/26 03:29:46;;;;;;;0.40;0.40;;;17.70;48.10;;;;;;4829676;29;20195;-84
2023/03/26 03:32:12;;;;;;;0.40;0.40;;;17.70;48.10;;;;;;4829650;29;20189;-84
2023/03/26 03:34:42;;;;;;;0.50;0.50;;;17.70;48.30;;;;;;4814015;29;20188;-86
2023/03/26 03:37:08;;;;;;;0.68;0.65;;;17.60;48.20;;;;;;4813646;29;20293;-85
2023/03/26 03:39:34;;;;;;;0.50;0.50;;;17.70;48.20;;;;;;4814171;29;20552;-85
2023/03/26 03:42:04;;;;;;;0.43;0.43;;;17.70;48.10;;;;;;4829711;29;20158;-85
2023/03/26 03:44:29;;;;;;;0.77;0.40;;;17.70;48.30;;;;;;4783584;29;20277;-85
2023/03/26 03:46:59;;;;;;;0.30;0.30;;;17.70;48.30;;;;;;4813618;29;20229;-85
2023/03/26 03:49:25;;;;;;;0.40;0.40;;;17.70;48.20;;;;;;4783263;29;20186;-85
2023/03/26 03:51:55;;;;;;;0.30;0.30;;;17.70;48.20;;;;;;4828833;29;20190;-86
2023/03/26 03:54:21;;;;;;;0.38;0.38;;;17.70;48.20;;;;;;4783383;29;20192;-85
2023/03/26 03:56:47;;;;;;;0.40;0.40;;;17.70;48.20;;;;;;4829031;29;20177;-85
2023/03/26 03:59:17;;;;;;;0.30;0.30;;;17.70;48.30;;;;;;4813524;29;20576;-85
2023/03/26 04:01:45;;;;;;;0.57;0.50;;;17.70;48.30;;;;;;4797951;29;20654;-85
2023/03/26 04:04:11;;;;;;;0.95;0.50;;;17.70;48.30;;;;;;4828959;29;20166;-85
2023/03/26 04:06:37;;;;;;;0.50;0.50;;;17.70;48.40;;;;;;4813047;29;20611;-86
2023/03/26 04:09:09;;;;;;;0.40;0.40;;;17.70;48.30;;;;;;4828759;29;20162;-84
2023/03/26 04:11:35;;;;;;;0.45;0.45;;;17.70;48.30;;;;;;4798351;29;20723;-85
2023/03/26 04:14:05;;;;;;;0.40;0.40;;;17.70;48.30;;;;;;4813449;29;20185;-85
2023/03/26 04:16:31;;;;;;;0.47;0.47;;;17.70;48.30;;;;;;4782501;29;20541;-84
2023/03/26 04:18:57;;;;;;;0.40;0.40;;;17.70;48.40;;;;;;4813226;29;20238;-85
2023/03/26 04:21:29;;;;;;;0.50;0.50;;;17.70;48.30;;;;;;4813557;29;20543;-85
2023/03/26 04:23:55;;;;;;;0.47;0.40;;;17.70;48.50;;;;;;4798711;29;20189;-85
2023/03/26 04:26:29;;;;;;;0.40;0.40;;;17.70;48.30;;;;;;4845103;29;20237;-85
2023/03/26 04:28:58;;;;;;;0.32;0.32;;;17.70;48.30;;;;;;4798906;29;20212;-85
2023/03/26 04:31:27;;;;;;;0.55;0.50;;;17.70;48.30;;;;;;4828789;29;20531;-85
2023/03/26 04:33:55;;;;;;;0.47;0.47;;;17.70;48.30;;;;;;4813382;29;20176;-85
2023/03/26 04:36:25;;;;;;;0.30;0.30;;;17.60;48.30;;;;;;4829698;29;20238;-85
2023/03/26 04:38:52;;;;;;;0.30;0.30;;;17.70;48.40;;;;;;4832111;29;20181;-85
2023/03/26 04:41:21;;;;;;;0.68;0.40;;;17.70;48.40;;;;;;4863129;29;20270;-86
2023/03/26 04:43:49;;;;;;;0.50;0.50;;;17.70;48.40;;;;;;4846684;29;20181;-85
2023/03/26 04:46:17;;;;;;;0.50;0.50;;;17.70;48.40;;;;;;4846721;29;20184;-85
2023/03/26 04:48:44;;;;;;;0.68;0.50;;;17.70;48.40;;;;;;4846445;29;20180;-85
2023/03/26 04:51:16;;;;;;;0.40;0.40;;;17.70;48.30;;;;;;4846443;29;20632;-85
2023/03/26 04:53:50;;;;;;;0.38;0.38;;;17.60;48.30;;;;;;4846823;29;20168;-85
2023/03/26 04:56:34;;;;;;;0.40;0.40;;;17.70;48.40;;;;;;4846398;29;20160;-84
2023/03/26 04:59:00;;;;;;;0.50;0.35;;;17.70;48.30;;;;;;4862609;29;20169;-84
2023/03/26 05:01:28;;;;;;;0.45;0.45;;;17.70;48.40;;;;;;4846400;29;20157;-85
2023/03/26 05:03:54;;;;;;;0.40;0.40;;;17.60;48.40;;;;;;4846318;29;20180;-85
2023/03/26 05:06:20;;;;;;;0.30;0.30;;;17.70;48.50;;;;;;4846007;29;20192;-84
2023/03/26 05:08:46;;;;;;;0.50;0.50;;;17.70;48.50;;;;;;4845831;29;20610;-84
2023/03/26 05:11:12;;;;;;;0.40;0.40;;;17.60;48.40;;;;;;4845849;29;20259;-84
2023/03/26 05:13:41;;;;;;;0.40;0.40;;;17.60;49.10;;;;;;4845814;29;20217;-84
2023/03/26 05:16:09;;;;;;;0.50;0.50;;;17.60;48.50;;;;;;4846270;29;20149;-84
2023/03/26 05:18:34;;;;;;;0.45;0.45;;;17.60;48.60;;;;;;4845505;29;20212;-86
2023/03/26 05:21:00;;;;;;;0.40;0.40;;;17.60;48.50;;;;;;4862377;29;20169;-84
2023/03/26 05:23:27;;;;;;;0.43;0.43;;;17.60;48.50;;;;;;4816070;29;20176;-84
2023/03/26 05:25:52;;;;;;;0.40;0.40;;;17.60;48.40;;;;;;4846579;29;20168;-85
2023/03/26 05:28:19;;;;;;;0.47;0.47;;;17.70;48.50;;;;;;4846358;29;20204;-85
2023/03/26 05:30:45;;;;;;;0.85;0.47;;;17.70;48.50;;;;;;4831548;29;20157;-86
2023/03/26 05:33:11;;;;;;;0.57;0.57;;;17.70;48.50;;;;;;4846636;29;20169;-86
2023/03/26 05:35:39;;;;;;;0.30;0.30;;;17.70;48.30;;;;;;4846380;29;20622;-85
2023/03/26 05:38:05;;;;;;;0.35;0.30;;;17.70;48.40;;;;;;4846588;29;20726;-84
2023/03/26 05:40:30;;;;;;;0.57;0.50;;;17.70;48.50;;;;;;4813233;29;20185;-85
2023/03/26 05:42:56;;;;;;;0.50;0.50;;;17.70;48.50;;;;;;4812855;29;20173;-84
2023/03/26 05:45:22;;;;;;;0.75;0.40;;;17.70;48.50;;;;;;4828106;29;20169;-85
2023/03/26 05:47:49;;;;;;;0.45;0.43;;;17.70;48.50;;;;;;4812903;29;20197;-85
2023/03/26 05:50:14;;;;;;;0.52;0.45;;;17.70;48.40;;;;;;4828638;29;20157;-85
2023/03/26 05:52:45;;;;;;;0.50;0.40;;;17.70;48.50;;;;;;4813634;29;20169;-84
2023/03/26 05:55:17;;;;;;;0.50;0.50;;;17.70;48.50;;;;;;4782500;29;20211;-85
2023/03/26 05:57:42;;;;;;;0.35;0.35;;;17.60;48.40;;;;;;4798775;29;20198;-85
2023/03/26 06:00:10;;;;;;;0.40;0.40;;;17.70;48.50;;;;;;4813145;29;20230;-85
2023/03/26 06:02:36;;;;;;;0.50;0.50;;;17.70;48.50;;;;;;4813501;29;20657;-85
2023/03/26 06:05:03;;;;;;;0.40;0.40;;;17.70;48.60;;;;;;4828032;29;20169;-85
2023/03/26 06:07:30;;;;;;;0.50;0.45;;;17.60;48.50;;;;;;4828266;29;20198;-84
2023/03/26 06:09:56;;;;;;;0.40;0.40;;;17.70;48.40;;;;;;4828295;29;20157;-84
2023/03/26 06:12:21;;;;;;;0.57;0.57;;;17.70;48.50;;;;;;4812777;29;20180;-85
2023/03/26 06:14:51;;;;;;;0.65;0.50;;;17.70;48.40;;;;;;4828475;29;20582;-85
2023/03/26 06:17:17;;;;;;;0.50;0.50;;;17.70;48.50;;;;;;4797441;29;20216;-85
2023/03/26 06:19:43;;;;;;;0.50;0.50;;;17.70;48.40;;;;;;4828632;29;20504;-84
2023/03/26 06:22:09;;;;;;;0.50;0.40;;;17.60;48.40;;;;;;4813373;29;20541;-85
2023/03/26 06:24:35;;;;;;;0.60;0.60;;;17.70;48.40;;;;;;4828518;29;20161;-85
2023/03/26 06:27:01;;;;;;;0.50;0.50;;;17.70;48.40;;;;;;4813435;29;20602;-85
2023/03/26 06:29:27;;;;;;;0.40;0.40;;;17.70;48.40;;;;;;4812787;29;20220;-85
2023/03/26 06:31:53;;;;;;;0.40;0.40;;;17.60;48.40;;;;;;4830958;29;20538;-85
2023/03/26 06:34:19;;;;;;;0.40;0.40;;;17.60;48.40;;;;;;4815338;29;20169;-85
2023/03/26 06:36:47;;;;;;;0.70;0.60;;;17.70;48.40;;;;;;4815900;29;20249;-85
2023/03/26 06:39:14;;;;;;;0.40;0.40;;;17.70;48.50;;;;;;4831340;29;20276;-85
2023/03/26 06:41:40;;;;;;;0.77;0.40;;;17.70;48.50;;;;;;4815552;29;20268;-85
2023/03/26 06:44:06;;;;;;;0.40;0.40;;;17.60;48.40;;;;;;4846088;29;20282;-85
2023/03/26 06:46:32;;;;;;;1.13;0.50;;;17.60;48.30;;;;;;4815160;29;20209;-85
2023/03/26 06:48:58;;;;;;;1.23;0.40;;;17.70;48.40;;;;;;4815530;29;20182;-85
2023/03/26 06:51:24;;;;;;;0.68;0.40;;;17.70;48.20;;;;;;4815694;29;20221;-85
2023/03/26 06:53:50;;;;;;;0.43;0.43;;;17.70;48.30;;;;;;4815836;29;20177;-85
2023/03/26 06:56:16;;;;;;;0.65;0.55;;;17.70;48.30;;;;;;4815429;29;20184;-84
2023/03/26 06:58:41;;;;;;;0.45;0.45;;;17.70;48.30;;;;;;4817138;29;20210;-85
2023/03/26 07:01:07;;;;;;;0.50;0.50;;;17.70;48.30;;;;;;4815259;29;20573;-84
2023/03/26 07:03:33;;;;;;;2.03;0.60;;;17.80;48.30;;;;;;4832755;29;20169;-83
2023/03/26 07:06:00;;;;;;;1.52;0.47;;;17.80;48.40;;;;;;4832037;29;20162;-84
2023/03/26 07:08:26;;;;;;;0.57;0.57;;;17.90;48.40;;;;;;4829751;29;20657;-85
2023/03/26 07:10:52;;;;;;;0.30;0.30;;;17.90;48.40;;;;;;4830257;29;20174;-83
2023/03/26 07:13:18;;;;;;;0.43;0.40;;;17.90;48.40;;;;;;4846291;29;20181;-83
2023/03/26 07:15:44;;;;;;;0.40;0.40;;;17.80;48.40;;;;;;4814116;29;20189;-82
2023/03/26 07:18:10;;;;;;;2.05;0.40;;;17.90;48.60;;;;;;4813326;29;20291;-83
2023/03/26 07:20:36;;;;;;;0.95;0.40;;;18.00;48.40;;;;;;4830262;29;20343;-85
2023/03/26 07:23:03;;;;;;;0.85;0.60;;;18.00;48.20;;;;;;4815501;29;20181;-82
2023/03/26 07:25:29;;;;;;;2.95;0.60;;;17.90;48.10;;;;;;4847457;29;20165;-82
2023/03/26 07:28:24;;;;;;;0.50;0.50;;;18.00;48.20;;;;;;4847176;29;20197;-82
2023/03/26 07:31:02;;;;;;;1.55;0.40;;;17.90;48.40;;;;;;4833895;29;20158;-84
2023/03/26 07:33:46;;;;;;;1.02;0.52;;;18.00;48.20;;;;;;4832431;29;20202;-83
2023/03/26 07:36:34;;;;;;;1.75;0.50;;;18.00;48.50;;;;;;4832689;29;20162;-83
2023/03/26 07:39:20;;;;;;;0.63;0.43;;;18.00;48.30;;;;;;4837091;29;20161;-84
2023/03/26 07:41:51;;;;;;;0.75;0.55;;;18.10;48.00;;;;;;4849877;29;20202;-84
2023/03/26 07:44:44;;;;;;;1.38;0.50;;;18.10;48.00;;;;;;4850389;29;20264;-84
2023/03/26 07:47:21;;;;;;;0.68;0.50;;;18.20;47.90;;;;;;4867370;29;20260;-83
2023/03/26 07:49:48;;;;;;;0.47;0.47;;;18.30;47.70;;;;;;4820741;29;20276;-85
2023/03/26 07:52:14;;;;;;;0.65;0.40;;;18.30;47.60;;;;;;4805453;29;20184;-85
2023/03/26 07:54:42;;;;;;;0.70;0.57;;;18.30;47.50;;;;;;4834923;29;20239;-84
2023/03/26 07:57:15;;;;;;;1.45;0.60;;;18.30;47.50;;;;;;4850686;29;20183;-86
2023/03/26 07:59:56;;;;;;;3.53;0.73;;;18.40;47.40;;;;;;4850293;29;20184;-85
2023/03/26 08:02:41;;;;;;;1.00;0.65;;;18.40;47.40;;;;;;4804193;29;20207;-84
2023/03/26 08:05:28;;;;;;;3.83;0.52;;;18.40;47.60;;;;;;4868044;29;20169;-86
2023/03/26 08:08:28;;;;;;;3.75;0.70;;;18.50;47.60;;;;;;4856450;29;20617;-85
2023/03/26 08:11:33;;;;;;;3.80;0.45;;;18.40;47.60;;;;;;4822721;29;20190;-84
2023/03/26 08:14:09;;;;;;;4.00;0.68;;;18.50;47.60;;;;;;4817268;29;20609;-84
2023/03/26 08:16:52;;;;;;;4.28;0.60;;;18.50;47.60;;;;;;4821088;29;20170;-85
2023/03/26 08:19:47;;;;;;;2.15;0.60;;;18.50;47.50;;;;;;4803631;29;20200;-84
2023/03/26 08:22:33;;;;;;;3.40;0.60;;;18.50;47.60;;;;;;4821871;29;20201;-83
2023/03/26 08:25:18;;;;;;;4.95;0.70;;;18.50;47.40;;;;;;4816292;29;20190;-82
2023/03/26 08:28:07;;;;;;;1.88;0.50;;;18.60;47.60;;;;;;4798883;29;20325;-83
2023/03/26 08:30:33;;;;;;;4.28;0.60;;;18.60;47.40;;;;;;4793339;30;20666;-84
2023/03/26 08:33:11;;;;;;;4.32;0.50;;;18.50;47.60;;;;;;4812949;29;20213;-86
2023/03/26 08:35:45;;;;;;;1.90;0.50;;;18.60;47.90;;;;;;4829101;29;20189;-84
2023/03/26 08:38:12;;;;;;;5.28;0.70;;;18.60;47.70;;;;;;4788661;29;20249;-86
2023/03/26 08:41:10;;;;;;;3.97;0.60;;;18.60;47.50;;;;;;4816575;29;20197;-84
2023/03/26 08:44:03;;;;;;;3.38;0.75;;;18.60;47.70;;;;;;4804515;29;20179;-85
2023/03/26 08:47:06;;;;;;;16.40;0.90;;;18.60;47.60;;;;;;4790396;29;20365;-84
2023/03/26 08:49:56;;;;;;;8.93;0.90;;;18.60;47.70;;;;;;4801440;29;20253;-85
2023/03/26 08:52:45;;;;;;;10.90;1.50;;;18.60;47.90;;;;;;4787607;29;20270;-83
2023/03/26 08:55:43;;;;;;;9.85;0.80;;;18.60;48.10;;;;;;4807956;29;20190;-86
2023/03/26 08:58:53;;;;;;;9.98;1.00;;;18.60;48.40;;;;;;4806322;29;20217;-84
2023/03/26 09:02:16;;;;;;;;;;;;;;;;;;;;;
2023/03/26 09:09:03;;;;;;;;;;;;;;;;;;;;;
2023/03/26 09:12:09;;;;;;;19.08;1.17;;;18.50;48.70;;;;;;4683346;30;20227;-86
2023/03/26 09:14:53;;;;;;;6.30;1.65;;;18.60;48.50;;;;;;4737765;30;20203;-86
2023/03/26 09:17:54;;;;;;;11.55;0.82;;;18.50;48.70;;;;;;4734759;30;20184;-86
2023/03/26 09:21:15;;;;;;;3.03;0.77;;;18.50;48.80;;;;;;4685809;30;20195;-87
2023/03/26 09:24:15;;;;;;;7.45;1.00;;;18.40;49.50;;;;;;4709377;30;20222;-87
2023/03/26 09:27:26;;;;;;;9.35;1.00;;;18.30;48.40;;;;;;4692419;30;20246;-87
2023/03/26 09:30:43;;;;;;;10.00;0.95;;;18.40;48.40;;;;;;4707370;30;20233;-86
2023/03/26 09:33:44;;;;;;;9.00;1.30;;;18.40;48.90;;;;;;4709398;30;20191;-87
2023/03/26 09:36:45;;;;;;;8.43;0.98;;;18.40;48.90;;;;;;4712301;30;20236;-85
2023/03/26 09:40:04;;;;;;;6.68;0.70;;;18.40;49.00;;;;;;4709753;30;20210;-86
2023/03/26 09:42:52;;;;;;;6.22;1.05;;;18.40;48.50;;;;;;4710419;30;20191;-87
2023/03/26 09:48:47;;;;;;;8.93;0.90;;;18.40;49.10;;;;;;4751475;30;20208;-86
2023/03/26 09:51:37;;;;;;;4.70;0.85;;;18.40;49.10;;;;;;4759030;30;20287;-86
2023/03/26 09:54:27;;;;;;;6.20;0.90;;;18.40;49.10;;;;;;4771679;30;20215;-87
2023/03/26 09:57:12;;;;;;;9.30;1.25;;;18.40;49.40;;;;;;4803981;29;20185;-86
2023/03/26 10:00:03;;;;;;;3.20;0.85;;;18.40;49.30;;;;;;4836216;29;20204;-86
2023/03/26 10:02:57;;;;;;;4.28;0.75;;;18.40;49.40;;;;;;4836438;29;20182;-86
2023/03/26 10:05:55;;;;;;;2.53;0.70;;;18.40;49.70;;;;;;4821719;29;20177;-86
2023/03/26 10:08:54;;;;;;;4.63;0.52;;;18.30;49.40;;;;;;4838412;29;20204;-85
2023/03/26 10:12:02;;;;;;;2.47;0.88;;;18.40;49.60;;;;;;4800973;30;20183;-85
2023/03/26 10:14:42;;;;;;;2.33;0.60;;;18.40;49.20;;;;;;4789178;30;20663;-87
2023/03/26 10:17:36;;;;;;;4.22;0.63;;;18.40;49.20;;;;;;4787647;30;20243;-86
2023/03/26 10:20:22;;;;;;;6.72;0.70;;;18.40;49.40;;;;;;4787716;30;20195;-85
2023/03/26 10:23:24;;;;;;;3.70;0.60;;;18.40;49.40;;;;;;4766994;30;20191;-86
2023/03/26 10:26:23;;;;;;;2.72;0.77;;;18.30;49.30;;;;;;4783585;30;20538;-86
2023/03/26 10:29:33;;;;;;;4.63;0.55;;;18.30;49.50;;;;;;4759800;30;20206;-87
2023/03/26 10:32:19;;;;;;;3.35;0.60;;;18.40;49.30;;;;;;4785607;30;20199;-85
2023/03/26 10:35:16;;;;;;;1.50;0.50;;;18.30;49.60;;;;;;4731308;30;20207;-85
2023/03/26 10:38:15;;;;;;;3.75;0.70;;;18.30;49.60;;;;;;4770813;30;20239;-85
2023/03/26 10:40:53;;;;;;;3.03;0.60;;;18.30;49.60;;;;;;4777225;30;20196;-85
2023/03/26 10:44:04;;;;;;;2.15;0.63;;;18.30;49.60;;;;;;4839418;29;20194;-85
2023/03/26 10:47:07;;;;;;;3.80;0.47;;;18.30;49.60;;;;;;4809442;29;20213;-86
2023/03/26 10:50:03;;;;;;;5.10;0.60;;;18.30;49.60;;;;;;4797742;29;20288;-85
2023/03/26 10:52:36;;;;;;;3.30;0.50;;;18.30;49.50;;;;;;4805922;29;20275;-84
2023/03/26 10:55:28;;;;;;;2.83;0.50;;;18.40;49.60;;;;;;4793139;29;20189;-85
2023/03/26 10:58:16;;;;;;;2.20;0.60;;;18.30;49.40;;;;;;4769136;29;20244;-85
2023/03/26 11:01:03;;;;;;;0.90;0.40;;;18.30;49.40;;;;;;4805360;29;20194;-85
2023/03/26 11:03:42;;;;;;;3.97;0.68;;;18.30;49.20;;;;;;4789444;29;20210;-85
2023/03/26 11:06:37;;;;;;;0.77;0.30;;;18.40;48.90;;;;;;4790228;29;20261;-84
2023/03/26 11:09:45;;;;;;;0.57;0.30;;;18.40;49.50;;;;;;4789686;29;20595;-83
2023/03/26 11:12:24;;;;;;;1.60;0.57;;;18.40;49.10;;;;;;4804318;29;20197;-85
2023/03/26 11:15:04;;;;;;;1.55;0.50;;;18.40;49.40;;;;;;4825706;29;20190;-83
2023/03/26 11:17:46;;;;;;;1.88;0.50;;;18.40;49.20;;;;;;4801815;29;20174;-85
2023/03/26 11:20:19;;;;;;;2.70;0.70;;;18.40;49.30;;;;;;4797479;29;20174;-85
2023/03/26 11:23:25;;;;;;;1.17;0.50;;;18.30;49.80;;;;;;4801395;29;20178;-83
2023/03/26 11:26:05;;;;;;;2.05;0.40;;;18.30;49.10;;;;;;4828138;29;20194;-84
2023/03/26 11:28:58;;;;;;;0.50;0.40;;;18.30;49.20;;;;;;4813320;29;20214;-85
2023/03/26 11:31:51;;;;;;;2.92;0.70;;;18.40;49.60;;;;;;4798526;29;20651;-84
2023/03/26 11:34:20;;;;;;;2.88;0.52;;;18.40;49.50;;;;;;4779187;29;20282;-85
2023/03/26 11:36:54;;;;;;;2.60;0.40;;;18.40;48.80;;;;;;4781285;29;20217;-86
2023/03/26 11:39:24;;;;;;;3.50;0.50;;;18.40;48.90;;;;;;4793531;30;20195;-85
2023/03/26 11:42:03;;;;;;;3.50;0.88;;;18.40;49.10;;;;;;4795829;30;20187;-84
2023/03/26 11:44:33;;;;;;;4.50;0.75;;;18.50;48.70;;;;;;4780690;30;20268;-84
2023/03/26 11:47:03;;;;;;;11.10;1.42;;;18.50;48.40;;;;;;4781291;30;20241;-85
2023/03/26 11:49:32;;;;;;;16.40;1.60;;;18.50;48.90;;;;;;4809682;29;20191;-83
2023/03/26 11:52:00;;;;;;;10.73;1.77;;;18.50;48.90;;;;;;4796270;29;20732;-84
2023/03/26 11:54:29;;;;;;;15.50;1.70;;;18.40;48.90;;;;;;4793052;30;20191;-84
2023/03/26 11:57:08;;;;;;;24.92;2.05;;;18.50;49.00;;;;;;4794048;30;20263;-83
2023/03/26 11:59:51;;;;;;;13.18;1.80;;;18.40;48.90;;;;;;4793924;30;20214;-85
2023/03/26 12:02:27;;;;;;;11.55;1.60;;;18.50;48.60;;;;;;4806195;29;20197;-84
2023/03/26 12:05:19;;;;;;;9.30;1.40;;;18.40;48.80;;;;;;4813756;29;20290;-85
2023/03/26 12:07:56;;;;;;;15.50;1.73;;;18.50;48.90;;;;;;4815193;29;20201;-85
2023/03/26 12:10:36;;;;;;;12.48;1.67;;;18.50;48.70;;;;;;4818359;29;20193;-83
2023/03/26 12:16:24;;;;;;;17.70;2.17;;;18.50;48.40;;;;;;4841787;29;20210;-84
2023/03/26 12:19:07;;;;;;;15.23;1.48;;;18.40;48.70;;;;;;4806456;29;20249;-82
2023/03/26 12:21:43;;;;;;;10.93;1.58;;;18.40;48.40;;;;;;4820540;29;20205;-84
2023/03/26 12:24:40;;;;;;;11.57;1.90;;;18.50;48.70;;;;;;4813624;29;20242;-83
2023/03/26 12:27:24;;;;;;;12.73;1.30;;;18.50;48.50;;;;;;4805924;29;20210;-83
2023/03/26 12:29:51;;;;;;;7.40;1.02;;;18.50;48.70;;;;;;4817210;29;20222;-83
2023/03/26 12:32:37;;;;;;;6.13;1.08;;;18.40;48.30;;;;;;4820550;29;20233;-83
2023/03/26 12:35:17;;;;;;;7.75;1.00;;;18.40;49.10;;;;;;4822880;29;20550;-82
2023/03/26 12:37:44;;;;;;;5.70;1.00;;;18.30;49.40;;;;;;4818131;29;20226;-82
2023/03/26 12:40:41;;;;;;;14.07;1.40;;;18.40;48.80;;;;;;4819418;29;20171;-82
2023/03/26 12:43:22;;;;;;;9.10;0.80;;;18.30;49.60;;;;;;4836095;29;20178;-81
2023/03/26 12:45:50;;;;;;;3.40;0.70;;;18.30;49.70;;;;;;4804818;29;20189;-82
2023/03/26 12:48:16;;;;;;;6.38;1.02;;;18.30;49.50;;;;;;4804642;29;20202;-81
2023/03/26 12:51:19;;;;;;;3.53;0.70;;;18.30;49.40;;;;;;4818840;29;20366;-84
2023/03/26 12:54:00;;;;;;;12.50;1.10;;;18.30;49.60;;;;;;4825015;29;20158;-85
2023/03/26 12:56:34;;;;;;;5.80;1.00;;;18.30;49.90;;;;;;4800716;29;20174;-84
2023/03/26 12:59:17;;;;;;;7.22;0.90;;;18.30;49.20;;;;;;4806564;29;20664;-83
2023/03/26 13:01:53;;;;;;;6.88;0.90;;;18.40;48.50;;;;;;4815869;29;20166;-83
2023/03/26 13:05:13;;;;;;;4.32;0.73;;;18.30;49.30;;;;;;4815301;29;20177;-83
2023/03/26 13:08:23;;;;;;;8.05;0.98;;;18.40;48.40;;;;;;4808499;29;20297;-84
2023/03/26 13:11:22;;;;;;;4.85;0.85;;;18.50;49.60;;;;;;4801692;29;20170;-83
2023/03/26 13:14:03;;;;;;;3.67;0.60;;;18.40;49.20;;;;;;4827834;29;20166;-82
2023/03/26 13:17:02;;;;;;;3.35;0.63;;;18.40;49.00;;;;;;4818289;29;20182;-82
2023/03/26 13:20:11;;;;;;;8.15;0.77;;;18.50;48.60;;;;;;4802631;29;20551;-82
2023/03/26 13:22:46;;;;;;;9.30;0.93;;;18.50;48.70;;;;;;4831647;29;20170;-83
2023/03/26 13:25:29;;;;;;;5.85;1.02;;;18.50;48.80;;;;;;4798269;29;20189;-83
2023/03/26 13:28:12;;;;;;;4.55;0.85;;;18.50;48.90;;;;;;4813111;29;20189;-82
2023/03/26 13:30:56;;;;;;;3.45;0.60;;;18.50;49.00;;;;;;4799884;29;20170;-81
2023/03/26 13:33:36;;;;;;;2.90;0.90;;;18.50;49.30;;;;;;4814514;29;20182;-81
2023/03/26 13:36:45;;;;;;;3.60;0.90;;;18.50;48.90;;;;;;4816066;29;20234;-83
2023/03/26 13:39:23;;;;;;;4.93;0.80;;;18.40;49.40;;;;;;4778812;30;20567;-83
2023/03/26 13:42:13;;;;;;;4.38;0.70;;;18.50;49.80;;;;;;4777754;30;20246;-83
2023/03/26 13:45:15;;;;;;;4.53;0.60;;;18.40;49.20;;;;;;4757213;30;20236;-83
2023/03/26 13:47:48;;;;;;;4.63;0.82;;;18.40;49.30;;;;;;4760208;30;20216;-82